Time;durP1;ratioP1;P1;durP2;ratioP2;P2;SDS_P1;SDS_P2;PMS_P1;PMS_P2;Temp;Humidity;BMP_temperature;BMP_pressure;BME280_temperature;BME280_humidity;BME280_pressure;Samples;Min_cycle;Max_cycle;Signal;HPM_P1;HPM_P2
2021/04/28 00:01:04;;;;;;;14.60;7.60;;;;;;;0.12;65.98;100519.48;106028;1104;77033;-61
2021/04/28 00:03:13;;;;;;;11.00;6.40;;;;;;;0.16;66.35;100520.94;105999;1104;78647;-67
2021/04/28 00:05:22;;;;;;;14.40;7.10;;;;;;;0.15;65.88;100522.75;106037;1105;78346;-67
2021/04/28 00:07:27;;;;;;;14.10;7.40;;;;;;;0.15;66.38;100520.09;106007;1104;77333;-67
2021/04/28 00:09:33;;;;;;;11.30;7.10;;;;;;;0.13;65.90;100514.06;106027;1104;77022;-67
2021/04/28 00:11:38;;;;;;;10.20;6.80;;;;;;;0.11;66.37;100515.97;106040;1105;78603;-67
2021/04/28 00:13:43;;;;;;;10.50;6.90;;;;;;;0.06;66.27;100512.84;106032;1104;77253;-66
2021/04/28 00:15:52;;;;;;;13.00;6.90;;;;;;;0.05;66.40;100511.16;106051;1104;78136;-67
2021/04/28 00:18:04;;;;;;;8.70;6.20;;;;;;;0.02;66.14;100513.20;106052;1105;77388;-67
2021/04/28 00:20:13;;;;;;;12.50;6.60;;;;;;;-0.01;66.76;100508.98;106065;1098;76814;-67
2021/04/28 00:22:18;;;;;;;12.80;6.90;;;;;;;-0.03;66.16;100510.92;106093;1098;78572;-67
2021/04/28 00:24:24;;;;;;;11.40;7.10;;;;;;;-0.03;66.61;100514.39;106034;1104;77103;-61
2021/04/28 00:26:28;;;;;;;12.70;6.70;;;;;;;-0.05;66.08;100512.83;106039;1104;77329;-61
2021/04/28 00:28:34;;;;;;;13.90;8.10;;;;;;;-0.08;65.93;100510.41;106044;1103;77165;-61
2021/04/28 00:30:39;;;;;;;14.90;8.10;;;;;;;-0.06;66.45;100504.04;106035;1104;76836;-61
2021/04/28 00:32:45;;;;;;;14.10;8.00;;;;;;;-0.06;66.17;100505.84;106038;1104;78813;-61
2021/04/28 00:34:50;;;;;;;10.20;6.70;;;;;;;-0.11;66.22;100508.83;106019;1104;78882;-61
2021/04/28 00:36:58;;;;;;;12.60;7.20;;;;;;;-0.14;65.98;100500.28;106062;1104;78127;-62
2021/04/28 00:39:06;;;;;;;11.20;7.00;;;;;;;-0.17;66.35;100500.52;106041;1104;78937;-62
2021/04/28 00:41:12;;;;;;;11.50;6.90;;;;;;;-0.13;66.61;100500.16;106022;1104;77209;-62
2021/04/28 00:43:17;;;;;;;11.80;6.70;;;;;;;-0.13;66.83;100504.61;106043;1105;78050;-62
2021/04/28 00:45:25;;;;;;;11.10;6.70;;;;;;;-0.17;66.41;100501.38;106050;1105;76854;-62
2021/04/28 00:47:30;;;;;;;12.40;6.90;;;;;;;-0.14;66.65;100502.94;106023;1104;77942;-62
2021/04/28 00:49:35;;;;;;;12.50;7.50;;;;;;;-0.15;66.34;100499.44;106019;1104;77365;-68
2021/04/28 00:51:40;;;;;;;12.80;7.30;;;;;;;-0.13;66.33;100510.77;106046;1105;76873;-68
2021/04/28 00:53:48;;;;;;;14.20;8.00;;;;;;;-0.11;66.72;100513.33;106035;1099;77413;-62
2021/04/28 00:55:56;;;;;;;10.20;7.30;;;;;;;-0.10;66.56;100507.03;106034;1104;78744;-62
2021/04/28 00:58:05;;;;;;;17.90;8.10;;;;;;;-0.11;66.51;100503.52;106040;1104;77552;-65
2021/04/28 01:00:16;;;;;;;17.00;8.60;;;;;;;-0.07;66.78;100506.80;106033;1104;77283;-68
2021/04/28 01:02:21;;;;;;;11.60;7.80;;;;;;;-0.09;66.70;100509.59;106031;1105;77120;-64
2021/04/28 01:04:30;;;;;;;13.20;7.50;;;;;;;-0.13;66.12;100510.77;106062;1104;77443;-65
2021/04/28 01:06:35;;;;;;;13.30;7.90;;;;;;;-0.10;66.61;100505.23;106043;1104;79006;-65
2021/04/28 01:08:43;;;;;;;14.00;8.30;;;;;;;-0.07;66.87;100504.14;106020;1105;76983;-65
2021/04/28 01:10:48;;;;;;;12.00;8.10;;;;;;;-0.11;66.80;100508.02;106029;1105;78134;-65
2021/04/28 01:12:57;;;;;;;12.70;7.90;;;;;;;-0.08;66.65;100505.09;106054;1098;77435;-65
2021/04/28 01:15:10;;;;;;;15.40;9.40;;;;;;;-0.09;66.84;100503.42;106039;1104;78267;-65
2021/04/28 01:17:15;;;;;;;13.50;7.40;;;;;;;-0.11;66.75;100500.05;106032;1104;77395;-65
2021/04/28 01:19:22;;;;;;;15.40;8.20;;;;;;;-0.14;66.78;100493.14;106028;1104;77045;-60
2021/04/28 01:21:28;;;;;;;15.60;8.80;;;;;;;-0.14;66.32;100497.63;106047;1105;78321;-60
2021/04/28 01:23:33;;;;;;;13.80;8.40;;;;;;;-0.11;66.52;100490.25;106016;1105;79055;-61
2021/04/28 01:25:40;;;;;;;13.80;8.50;;;;;;;-0.08;66.38;100495.33;106040;1104;78103;-60
2021/04/28 01:27:51;;;;;;;15.90;9.20;;;;;;;0.01;66.15;100491.11;106041;1104;77338;-60
2021/04/28 01:29:56;;;;;;;17.80;9.70;;;;;;;0.06;66.43;100494.25;106047;1104;77483;-65
2021/04/28 01:32:02;;;;;;;15.80;9.40;;;;;;;0.12;66.10;100493.77;106020;1104;77670;-66
2021/04/28 01:34:08;;;;;;;17.80;9.40;;;;;;;0.11;66.69;100486.75;106031;1105;77278;-62
2021/04/28 01:36:18;;;;;;;16.90;9.40;;;;;;;0.06;65.98;100496.05;106025;1104;77243;-61
2021/04/28 01:38:26;;;;;;;17.30;8.20;;;;;;;0.00;65.87;100490.26;106052;1104;77229;-70
2021/04/28 01:40:36;;;;;;;14.20;8.40;;;;;;;-0.03;66.24;100487.84;106060;1105;78696;-62
2021/04/28 01:42:42;;;;;;;14.50;8.70;;;;;;;0.05;66.09;100494.38;106050;1105;77576;-62
2021/04/28 01:44:50;;;;;;;13.80;8.30;;;;;;;0.03;66.26;100491.83;106039;1104;78258;-69
2021/04/28 01:46:55;;;;;;;16.40;8.50;;;;;;;0.03;66.08;100494.48;106058;1104;78267;-69
2021/04/28 01:49:03;;;;;;;16.80;9.60;;;;;;;0.08;66.38;100492.34;106042;1104;77738;-69
2021/04/28 01:51:08;;;;;;;17.10;9.20;;;;;;;0.16;65.80;100483.76;106013;1104;78225;-69
2021/04/28 01:53:15;;;;;;;16.30;9.80;;;;;;;0.15;65.87;100485.56;106026;1104;77070;-69
2021/04/28 01:55:21;;;;;;;15.00;8.70;;;;;;;0.14;66.37;100483.05;106055;1104;79440;-69
2021/04/28 01:57:28;;;;;;;16.10;9.30;;;;;;;0.21;66.24;100481.58;106007;1104;78336;-69
2021/04/28 01:59:34;;;;;;;16.30;8.80;;;;;;;0.18;65.95;100477.36;106030;1104;78643;-62
2021/04/28 02:01:41;;;;;;;12.60;8.40;;;;;;;0.19;65.98;100476.41;106049;1104;78808;-62
2021/04/28 02:03:47;;;;;;;13.50;8.90;;;;;;;0.18;66.01;100474.70;106030;1104;78599;-62
2021/04/28 02:05:53;;;;;;;18.30;9.00;;;;;;;0.16;65.55;100468.67;106046;1105;78511;-62
2021/04/28 02:08:01;;;;;;;18.40;9.80;;;;;;;0.13;65.87;100479.53;106047;1105;78940;-64
2021/04/28 02:10:10;;;;;;;19.10;10.30;;;;;;;0.14;65.50;100475.89;106028;1104;78591;-61
2021/04/28 02:12:15;;;;;;;17.90;10.00;;;;;;;0.12;66.22;100466.36;106059;1104;78296;-61
2021/04/28 02:14:21;;;;;;;17.20;10.40;;;;;;;0.14;66.06;100470.58;106052;1104;79355;-62
2021/04/28 02:16:27;;;;;;;17.30;8.90;;;;;;;0.13;65.93;100462.75;106054;1105;78133;-61
2021/04/28 02:18:33;;;;;;;18.10;10.60;;;;;;;0.11;66.27;100472.66;106032;1104;78078;-66
2021/04/28 02:20:39;;;;;;;17.20;9.70;;;;;;;0.13;65.59;100466.25;106054;1104;76806;-67
2021/04/28 02:22:45;;;;;;;15.40;9.10;;;;;;;0.13;66.31;100457.44;106039;1104;77265;-64
2021/04/28 02:24:50;;;;;;;17.60;9.70;;;;;;;0.18;65.13;100461.42;106021;1104;78773;-61
2021/04/28 02:26:59;;;;;;;16.70;9.70;;;;;;;0.15;65.91;100456.34;106038;1104;77071;-61
2021/04/28 02:29:05;;;;;;;18.10;10.20;;;;;;;0.09;65.85;100459.48;106037;1104;77948;-61
2021/04/28 02:31:15;;;;;;;17.80;10.10;;;;;;;0.05;65.80;100463.36;106027;1104;77062;-61
2021/04/28 02:33:23;;;;;;;15.70;9.10;;;;;;;0.00;65.71;100468.20;106031;1105;77793;-61
2021/04/28 02:35:32;;;;;;;16.00;9.60;;;;;;;-0.04;65.78;100458.77;106046;1105;77592;-61
2021/04/28 02:37:40;;;;;;;17.70;9.90;;;;;;;-0.12;65.78;100453.22;106036;1105;77980;-61
2021/04/28 02:39:52;;;;;;;16.00;10.20;;;;;;;-0.19;66.00;100458.15;106017;1104;77607;-61
2021/04/28 02:41:57;;;;;;;16.90;10.00;;;;;;;-0.23;65.96;100466.48;106039;1104;78523;-61
2021/04/28 02:44:04;;;;;;;19.90;9.80;;;;;;;-0.24;66.15;100472.74;106050;1105;78032;-67
2021/04/28 02:46:16;;;;;;;16.30;8.90;;;;;;;-0.28;66.52;100466.00;106025;1104;77711;-68
2021/04/28 02:48:25;;;;;;;16.10;9.80;;;;;;;-0.33;65.89;100465.52;106037;1105;78580;-61
2021/04/28 02:50:31;;;;;;;15.50;9.50;;;;;;;-0.37;66.65;100469.35;106048;1104;78179;-61
2021/04/28 02:52:36;;;;;;;17.40;10.50;;;;;;;-0.37;66.18;100464.90;106036;1104;78464;-61
2021/04/28 02:54:42;;;;;;;16.80;9.30;;;;;;;-0.35;66.47;100465.61;106058;1104;78567;-61
2021/04/28 02:56:49;;;;;;;16.20;9.50;;;;;;;-0.31;66.78;100468.88;106040;1104;78486;-61
2021/04/28 02:58:54;;;;;;;17.60;9.50;;;;;;;-0.34;66.18;100462.01;106047;1104;78509;-61
2021/04/28 03:01:05;;;;;;;16.40;9.70;;;;;;;-0.38;66.59;100465.00;106034;1104;77872;-61
2021/04/28 03:03:14;;;;;;;20.20;10.20;;;;;;;-0.38;66.91;100465.00;106035;1104;78842;-67
2021/04/28 03:05:21;;;;;;;14.50;9.20;;;;;;;-0.41;66.42;100465.27;106051;1104;78505;-68
2021/04/28 03:07:26;;;;;;;16.30;9.20;;;;;;;-0.41;66.52;100462.61;106030;1105;78431;-67
2021/04/28 03:09:35;;;;;;;16.30;9.50;;;;;;;-0.45;66.65;100461.14;106050;1104;77813;-67
2021/04/28 03:11:41;;;;;;;13.90;8.70;;;;;;;-0.43;66.69;100453.89;106042;1104;78445;-67
2021/04/28 03:13:47;;;;;;;14.70;9.50;;;;;;;-0.40;66.95;100459.82;106031;1104;77066;-61
2021/04/28 03:15:52;;;;;;;15.50;9.00;;;;;;;-0.39;67.22;100455.37;106030;1104;76998;-61
2021/04/28 03:18:07;;;;;;;15.60;9.30;;;;;;;-0.40;66.84;100456.31;106034;1104;78792;-61
2021/04/28 03:20:17;;;;;;;14.40;8.70;;;;;;;-0.42;66.89;100460.91;106068;1104;79472;-61
2021/04/28 03:22:23;;;;;;;13.80;8.70;;;;;;;-0.43;67.40;100461.86;106038;1104;76947;-61
2021/04/28 03:24:28;;;;;;;16.10;8.80;;;;;;;-0.44;67.39;100454.88;106079;1098;76690;-60
2021/04/28 03:26:37;;;;;;;17.30;9.60;;;;;;;-0.44;67.85;100461.01;106040;1105;79766;-61
2021/04/28 03:28:42;;;;;;;13.20;8.80;;;;;;;-0.43;67.61;100462.70;106016;1105;76794;-61
2021/04/28 03:30:47;;;;;;;13.70;8.50;;;;;;;-0.43;67.56;100468.02;106019;1104;77590;-61
2021/04/28 03:33:10;;;;;;;13.40;9.20;;;;;;;-0.39;67.35;100465.98;106011;1105;78196;-61
2021/04/28 03:35:16;;;;;;;16.50;9.40;;;;;;;-0.31;67.98;100466.23;105565;1107;78724;-61
2021/04/28 03:37:21;;;;;;;13.60;8.80;;;;;;;-0.27;67.87;100465.02;106032;1104;79478;-62
2021/04/28 03:39:27;;;;;;;15.70;9.10;;;;;;;-0.27;68.19;100459.70;106050;1104;77632;-67
2021/04/28 03:41:32;;;;;;;14.40;8.90;;;;;;;-0.25;67.38;100463.11;106037;1105;78170;-67
2021/04/28 03:43:38;;;;;;;13.40;9.00;;;;;;;-0.26;67.82;100462.26;106027;1104;78869;-61
2021/04/28 03:45:43;;;;;;;14.60;9.00;;;;;;;-0.22;67.75;100462.88;106007;1105;78225;-61
2021/04/28 03:47:51;;;;;;;17.50;9.40;;;;;;;-0.12;68.04;100463.84;106033;1105;77694;-61
2021/04/28 03:49:57;;;;;;;13.30;8.70;;;;;;;-0.06;68.05;100471.33;106044;1105;78528;-61
2021/04/28 03:52:02;;;;;;;14.00;9.00;;;;;;;0.00;68.36;100470.85;106034;1104;78083;-61
2021/04/28 03:54:09;;;;;;;12.40;8.20;;;;;;;0.09;68.21;100479.88;106007;1104;78463;-61
2021/04/28 03:56:15;;;;;;;14.80;8.40;;;;;;;0.14;67.54;100485.70;106044;1105;79076;-61
2021/04/28 03:58:20;;;;;;;12.40;9.00;;;;;;;0.71;68.56;100475.72;106057;1104;78721;-67
2021/04/28 04:00:26;;;;;;;16.90;8.90;;;;;;;2.10;68.87;100476.28;106069;1104;77461;-68
2021/04/28 04:02:31;;;;;;;12.70;8.20;;;;;;;3.47;68.19;100476.25;106042;1104;77235;-68
2021/04/28 04:04:36;;;;;;;15.20;8.70;;;;;;;4.56;66.73;100476.48;106032;1104;77407;-67
2021/04/28 04:06:42;;;;;;;13.10;7.80;;;;;;;5.33;65.63;100474.94;106053;1105;78294;-68
2021/04/28 04:08:47;;;;;;;13.40;8.10;;;;;;;5.86;64.29;100471.36;106026;1104;77233;-67
2021/04/28 04:10:52;;;;;;;10.30;6.90;;;;;;;6.12;63.00;100471.37;106013;1104;76919;-67
2021/04/28 04:13:05;;;;;;;11.80;8.00;;;;;;;5.76;61.81;100470.60;106041;1104;77329;-68
2021/04/28 04:15:11;;;;;;;12.50;7.80;;;;;;;5.63;61.42;100472.86;106049;1104;77201;-68
2021/04/28 04:17:16;;;;;;;10.40;7.40;;;;;;;5.51;61.12;100484.80;106020;1104;78169;-68
2021/04/28 04:19:22;;;;;;;13.40;8.10;;;;;;;5.33;60.92;100474.94;106018;1104;77560;-68
2021/04/28 04:21:30;;;;;;;13.50;9.50;;;;;;;5.80;60.35;100477.31;106039;1104;78306;-68
2021/04/28 04:23:35;;;;;;;12.70;7.70;;;;;;;6.15;59.96;100474.58;106040;1104;77805;-61
2021/04/28 04:25:40;;;;;;;12.20;8.10;;;;;;;6.45;59.35;100478.58;106036;1098;76783;-61
2021/04/28 04:27:45;;;;;;;11.90;8.40;;;;;;;6.79;59.19;100475.84;106057;1098;78526;-61
2021/04/28 04:29:51;;;;;;;12.20;8.00;;;;;;;7.30;58.75;100481.01;106046;1104;77956;-60
2021/04/28 04:31:56;;;;;;;12.20;7.80;;;;;;;8.44;56.92;100471.81;106041;1104;79544;-59
2021/04/28 04:34:01;;;;;;;11.20;7.70;;;;;;;9.78;55.14;100468.59;106030;1104;77987;-66
2021/04/28 04:36:09;;;;;;;11.40;7.90;;;;;;;11.17;53.91;100462.24;106035;1104;78762;-66
2021/04/28 04:38:16;;;;;;;12.40;8.50;;;;;;;12.07;51.79;100465.16;106004;1104;78199;-59
2021/04/28 04:40:21;;;;;;;11.70;7.80;;;;;;;13.14;49.86;100469.08;106050;1105;77566;-59
2021/04/28 04:42:26;;;;;;;12.00;7.70;;;;;;;13.77;48.45;100469.59;106029;1104;78789;-60
2021/04/28 04:44:34;;;;;;;10.60;7.60;;;;;;;14.53;47.21;100458.05;106018;1104;77525;-66
2021/04/28 04:46:39;;;;;;;10.40;8.20;;;;;;;15.33;45.29;100462.08;106028;1103;77417;-66
2021/04/28 04:48:44;;;;;;;14.50;7.40;;;;;;;15.81;43.56;100465.15;106043;1104;78838;-66
2021/04/28 04:50:49;;;;;;;10.50;7.60;;;;;;;16.27;41.59;100462.00;106035;1098;78336;-66
2021/04/28 04:52:57;;;;;;;10.10;7.90;;;;;;;16.84;41.15;100463.49;106022;1104;79594;-66
2021/04/28 04:55:02;;;;;;;10.30;7.70;;;;;;;17.10;39.71;100464.02;106045;1104;78529;-66
2021/04/28 04:57:10;;;;;;;11.60;8.20;;;;;;;17.57;37.31;100466.95;105993;1104;79254;-67
2021/04/28 04:59:15;;;;;;;13.70;7.10;;;;;;;17.83;36.03;100471.99;106049;1105;77532;-67
2021/04/28 05:01:23;;;;;;;10.90;8.40;;;;;;;18.64;34.86;100465.75;106043;1104;78403;-67
2021/04/28 05:03:28;;;;;;;11.00;7.80;;;;;;;18.90;33.92;100467.95;106050;1104;79412;-67
2021/04/28 05:05:33;;;;;;;11.50;7.60;;;;;;;19.08;33.33;100462.32;106033;1104;78589;-67
2021/04/28 05:07:39;;;;;;;11.50;6.90;;;;;;;19.14;31.75;100460.52;106009;1105;77366;-67
2021/04/28 05:09:44;;;;;;;12.90;8.30;;;;;;;19.59;31.49;100466.88;106019;1104;79085;-67
2021/04/28 05:11:49;;;;;;;11.20;8.00;;;;;;;19.92;30.63;100461.44;106053;1098;78728;-67
2021/04/28 05:13:54;;;;;;;10.60;7.90;;;;;;;20.13;30.67;100459.88;106038;1104;78848;-67
2021/04/28 05:16:02;;;;;;;11.40;7.80;;;;;;;20.17;29.96;100460.18;106043;1104;77323;-67
2021/04/28 05:18:10;;;;;;;11.70;7.90;;;;;;;20.48;28.53;100457.69;106024;1105;77415;-60
2021/04/28 05:20:16;;;;;;;12.70;7.70;;;;;;;20.46;28.18;100459.03;106055;1104;78257;-60
2021/04/28 05:22:26;;;;;;;10.20;6.80;;;;;;;20.51;28.15;100454.45;106032;1104;79420;-60
2021/04/28 05:24:31;;;;;;;12.00;8.70;;;;;;;21.18;27.96;100455.05;106040;1104;78252;-60
2021/04/28 05:26:37;;;;;;;9.90;7.50;;;;;;;21.59;26.35;100455.50;106038;1098;76666;-60
2021/04/28 05:28:44;;;;;;;11.10;7.30;;;;;;;21.97;26.50;100455.33;106054;1104;79335;-60
2021/04/28 05:30:49;;;;;;;11.80;7.30;;;;;;;22.20;26.34;100454.11;106022;1104;77060;-60
2021/04/28 05:33:01;;;;;;;9.30;7.30;;;;;;;22.30;25.36;100467.97;106041;1104;78317;-60
2021/04/28 05:35:09;;;;;;;8.90;7.20;;;;;;;22.42;24.75;100454.81;106059;1104;77262;-67
2021/04/28 05:37:17;;;;;;;8.90;6.40;;;;;;;22.78;24.33;100459.47;106035;1105;77978;-67
2021/04/28 05:39:22;;;;;;;10.20;7.20;;;;;;;23.20;24.60;100453.03;106051;1105;78517;-60
2021/04/28 05:41:28;;;;;;;10.80;7.70;;;;;;;23.54;23.02;100450.67;106047;1104;77859;-60
2021/04/28 05:43:34;;;;;;;12.10;8.20;;;;;;;23.86;23.87;100454.84;106036;1104;76879;-60
2021/04/28 05:45:45;;;;;;;10.90;7.50;;;;;;;24.31;22.68;100456.77;106039;1105;78024;-60
2021/04/28 05:47:53;;;;;;;9.30;7.40;;;;;;;24.02;22.34;100444.63;106053;1105;78055;-60
2021/04/28 05:50:07;;;;;;;9.70;7.40;;;;;;;23.58;20.98;100441.56;106039;1104;76953;-67
2021/04/28 05:52:12;;;;;;;9.80;7.40;;;;;;;23.72;21.51;100447.38;106044;1105;78135;-67
2021/04/28 05:54:17;;;;;;;10.10;7.60;;;;;;;23.55;21.76;100453.14;106024;1105;76940;-60
2021/04/28 05:56:22;;;;;;;8.20;6.60;;;;;;;23.75;21.70;100447.66;106045;1105;78108;-60
2021/04/28 05:58:27;;;;;;;9.50;7.60;;;;;;;24.03;21.26;100443.53;106033;1104;77576;-67
2021/04/28 06:00:33;;;;;;;10.40;7.70;;;;;;;24.61;21.07;100448.42;106012;1104;77046;-67
2021/04/28 06:02:39;;;;;;;10.60;7.70;;;;;;;25.00;20.65;100447.77;106006;1105;77548;-68
2021/04/28 06:04:44;;;;;;;10.00;7.80;;;;;;;25.37;19.81;100450.91;106057;1105;79691;-61
2021/04/28 06:06:52;;;;;;;12.20;7.40;;;;;;;25.10;19.87;100442.20;106048;1104;78841;-69
2021/04/28 06:08:57;;;;;;;7.90;6.80;;;;;;;25.53;19.89;100451.66;106029;1104;78360;-61
2021/04/28 06:11:02;;;;;;;9.80;7.60;;;;;;;25.66;20.12;100451.02;105998;1104;77511;-61
2021/04/28 06:13:08;;;;;;;9.20;6.70;;;;;;;25.99;19.55;100461.28;106046;1104;78272;-68
2021/04/28 06:15:16;;;;;;;10.10;6.40;;;;;;;25.41;19.32;100448.41;106041;1104;77861;-68
2021/04/28 06:17:24;;;;;;;11.60;7.30;;;;;;;25.09;18.51;100451.60;106027;1105;79248;-68
2021/04/28 06:19:29;;;;;;;8.70;6.80;;;;;;;24.12;19.25;100454.88;106041;1105;77967;-67
2021/04/28 06:21:35;;;;;;;11.40;6.60;;;;;;;23.50;19.60;100461.41;106055;1104;77201;-67
2021/04/28 06:23:40;;;;;;;10.40;7.20;;;;;;;22.99;19.68;100443.84;106035;1104;78277;-60
2021/04/28 06:25:49;;;;;;;12.60;7.20;;;;;;;22.47;20.04;100451.28;106040;1099;77747;-60
2021/04/28 06:28:07;;;;;;;9.10;6.20;;;;;;;21.31;20.28;100453.84;106064;1098;76651;-60
2021/04/28 06:30:14;;;;;;;10.90;6.90;;;;;;;20.93;21.25;100449.22;106053;1104;77321;-60
2021/04/28 06:32:20;;;;;;;10.60;7.90;;;;;;;21.04;20.98;100452.94;106039;1105;77177;-68
2021/04/28 06:34:25;;;;;;;8.90;6.70;;;;;;;20.35;20.72;100454.48;106040;1104;77947;-60
2021/04/28 06:36:34;;;;;;;10.60;6.90;;;;;;;20.21;21.19;100448.48;106028;1104;77095;-58
2021/04/28 06:38:39;;;;;;;11.40;7.50;;;;;;;19.99;21.80;100450.31;106034;1105;78387;-58
2021/04/28 06:40:45;;;;;;;10.40;7.00;;;;;;;19.87;21.30;100452.30;106003;1104;78087;-57
2021/04/28 06:42:50;;;;;;;8.40;6.80;;;;;;;20.03;21.11;100449.55;106048;1104;77280;-57
2021/04/28 06:44:58;;;;;;;8.70;6.50;;;;;;;20.27;21.74;100447.48;106048;1099;78683;-54
2021/04/28 06:47:06;;;;;;;14.00;9.40;;;;;;;20.37;19.61;100447.65;106054;1104;79162;-56
2021/04/28 06:49:12;;;;;;;10.40;7.00;;;;;;;20.26;21.54;100445.84;106043;1105;78324;-57
2021/04/28 06:51:17;;;;;;;9.80;6.10;;;;;;;21.26;21.26;100445.51;106054;1104;78761;-57
2021/04/28 06:53:25;;;;;;;9.40;6.30;;;;;;;21.78;20.85;100437.53;106035;1105;78247;-58
2021/04/28 06:55:30;;;;;;;9.20;7.10;;;;;;;22.14;20.52;100447.73;106041;1104;77384;-57
2021/04/28 06:57:36;;;;;;;13.20;6.70;;;;;;;22.27;20.08;100443.72;106057;1104;77895;-60
2021/04/28 06:59:41;;;;;;;9.10;7.00;;;;;;;22.22;19.79;100438.98;106060;1104;78230;-59
2021/04/28 07:01:51;;;;;;;9.90;6.90;;;;;;;22.40;19.80;100443.25;106039;1104;78350;-59
2021/04/28 07:03:56;;;;;;;15.00;8.60;;;;;;;23.01;19.65;100432.56;106042;1104;78329;-59
2021/04/28 07:06:11;;;;;;;11.80;7.80;;;;;;;23.88;19.45;100435.23;106023;1104;78765;-60
2021/04/28 07:08:22;;;;;;;9.40;6.60;;;;;;;23.95;18.47;100433.05;106042;1104;77608;-59
2021/04/28 07:10:27;;;;;;;12.70;8.50;;;;;;;24.35;19.01;100427.50;106039;1104;78783;-61
2021/04/28 07:12:32;;;;;;;10.20;6.90;;;;;;;24.46;18.55;100428.30;106066;1105;77243;-60
2021/04/28 07:14:37;;;;;;;8.20;6.70;;;;;;;24.49;18.41;100414.77;106024;1104;78313;-68
2021/04/28 07:16:42;;;;;;;10.50;7.40;;;;;;;24.53;18.12;100420.57;106027;1104;78186;-68
2021/04/28 07:18:47;;;;;;;9.60;7.30;;;;;;;24.10;18.10;100438.58;106049;1104;78535;-60
2021/04/28 07:20:56;;;;;;;9.90;7.30;;;;;;;24.02;17.51;100431.66;106021;1104;79157;-60
2021/04/28 07:23:04;;;;;;;9.20;6.90;;;;;;;24.24;18.15;100436.08;106037;1104;78369;-59
2021/04/28 07:25:11;;;;;;;8.40;7.30;;;;;;;24.30;17.52;100434.97;106042;1104;77895;-62
2021/04/28 07:27:17;;;;;;;7.00;5.80;;;;;;;24.74;17.61;100429.61;106065;1104;76998;-63
2021/04/28 07:29:25;;;;;;;7.60;6.40;;;;;;;25.44;16.34;100436.74;106022;1100;76972;-61
2021/04/28 07:31:30;;;;;;;7.90;6.60;;;;;;;24.88;16.94;100439.82;106014;1104;79316;-60
2021/04/28 07:33:37;;;;;;;7.50;6.80;;;;;;;25.22;17.45;100437.15;106018;1104;78003;-60
2021/04/28 07:35:45;;;;;;;6.90;5.60;;;;;;;25.49;16.08;100437.56;106028;1104;77464;-60
2021/04/28 07:37:53;;;;;;;7.30;5.20;;;;;;;24.56;15.89;100437.39;106024;1104;77433;-68
2021/04/28 07:39:58;;;;;;;7.10;5.40;;;;;;;24.92;16.59;100445.59;106058;1104;77074;-67
2021/04/28 07:42:04;;;;;;;5.70;5.10;;;;;;;25.17;16.51;100429.72;106023;1104;77024;-60
2021/04/28 07:44:14;;;;;;;7.00;5.70;;;;;;;24.93;16.43;100425.97;106043;1104;77731;-62
2021/04/28 07:46:23;;;;;;;9.40;5.60;;;;;;;25.12;16.70;100418.69;106038;1104;78598;-62
2021/04/28 07:48:31;;;;;;;11.20;7.10;;;;;;;26.03;16.52;100420.84;106012;1104;78470;-61
2021/04/28 07:50:37;;;;;;;6.90;5.50;;;;;;;26.22;16.27;100427.33;106018;1104;78060;-62
2021/04/28 07:52:42;;;;;;;6.30;5.50;;;;;;;26.47;16.27;100419.88;106038;1105;79244;-64
2021/04/28 07:54:48;;;;;;;8.90;7.90;;;;;;;26.23;16.40;100417.89;106009;1104;77928;-65
2021/04/28 07:56:53;;;;;;;11.90;9.70;;;;;;;26.73;16.36;100422.05;106056;1104;77511;-69
2021/04/28 07:59:02;;;;;;;8.70;5.60;;;;;;;26.71;16.15;100417.93;106059;1104;78211;-65
2021/04/28 08:01:07;;;;;;;6.00;5.10;;;;;;;26.82;15.40;100413.95;106048;1105;77666;-65
2021/04/28 08:03:12;;;;;;;5.70;5.20;;;;;;;27.15;16.02;100407.41;106015;1105;77926;-64
2021/04/28 08:05:20;;;;;;;7.20;5.60;;;;;;;26.85;15.55;100413.36;106023;1098;78833;-64
2021/04/28 08:07:25;;;;;;;6.00;5.20;;;;;;;26.77;15.90;100411.20;106029;1104;78341;-65
2021/04/28 08:09:30;;;;;;;7.40;5.90;;;;;;;27.15;15.63;100407.41;106026;1104;78639;-65
2021/04/28 08:11:35;;;;;;;8.50;6.30;;;;;;;26.85;15.40;100416.13;106038;1104;77123;-64
2021/04/28 08:13:40;;;;;;;7.50;6.50;;;;;;;26.56;15.31;100410.64;106044;1104;78763;-59
2021/04/28 08:15:47;;;;;;;9.00;6.80;;;;;;;25.83;15.35;100407.16;106031;1104;77599;-59
2021/04/28 08:17:55;;;;;;;8.10;7.10;;;;;;;26.37;15.56;100406.94;106084;1105;77762;-59
2021/04/28 08:20:06;;;;;;;6.60;5.90;;;;;;;26.36;15.21;100402.54;106022;1104;77284;-59
2021/04/28 08:22:12;;;;;;;7.20;5.50;;;;;;;26.27;15.38;100396.81;106023;1104;78243;-59
2021/04/28 08:24:17;;;;;;;8.70;6.40;;;;;;;26.35;15.49;100396.17;106030;1104;78853;-64
2021/04/28 08:26:24;;;;;;;9.20;6.50;;;;;;;26.35;15.74;100395.34;106041;1104;79213;-64
2021/04/28 08:28:29;;;;;;;9.20;8.10;;;;;;;26.80;14.45;100391.25;106035;1105;77429;-64
2021/04/28 08:30:35;;;;;;;9.70;7.50;;;;;;;25.88;14.41;100403.52;106032;1104;78207;-64
2021/04/28 08:32:40;;;;;;;6.40;5.70;;;;;;;25.70;15.82;100397.59;106017;1104;77452;-65
2021/04/28 08:34:46;;;;;;;5.50;4.90;;;;;;;26.17;15.71;100396.92;106064;1104;77701;-59
2021/04/28 08:36:51;;;;;;;6.40;5.20;;;;;;;25.99;15.77;100405.91;106046;1104;78472;-58
2021/04/28 08:38:58;;;;;;;7.90;6.20;;;;;;;26.06;15.13;100389.80;106043;1104;78866;-65
2021/04/28 08:41:09;;;;;;;7.60;5.70;;;;;;;25.52;15.61;100403.00;106058;1104;78889;-65
2021/04/28 08:43:14;;;;;;;5.40;4.90;;;;;;;26.15;16.22;100396.36;106038;1104;77002;-65
2021/04/28 08:45:19;;;;;;;6.60;5.10;;;;;;;26.36;15.80;100386.75;106035;1099;78370;-65
2021/04/28 08:47:25;;;;;;;6.50;5.80;;;;;;;26.56;14.17;100388.47;106022;1104;78036;-64
2021/04/28 08:49:30;;;;;;;4.90;4.40;;;;;;;26.28;15.47;100381.85;106029;1104;79787;-65
2021/04/28 08:51:38;;;;;;;7.70;5.50;;;;;;;26.07;15.07;100394.20;106017;1104;79142;-64
2021/04/28 08:53:43;;;;;;;6.20;5.00;;;;;;;25.80;14.99;100385.59;106053;1105;78390;-65
2021/04/28 08:55:49;;;;;;;4.90;4.50;;;;;;;25.48;15.96;100382.54;106014;1104;77386;-66
2021/04/28 08:58:02;;;;;;;6.50;4.70;;;;;;;25.39;16.01;100375.92;106036;1104;77614;-64
2021/04/28 09:00:11;;;;;;;5.10;4.60;;;;;;;25.44;15.90;100375.88;106017;1104;77972;-60
2021/04/28 09:02:22;;;;;;;5.50;4.80;;;;;;;25.58;15.66;100374.98;106029;1104;78551;-60
2021/04/28 09:04:29;;;;;;;6.30;5.50;;;;;;;25.32;15.02;100372.67;106028;1104;78159;-65
2021/04/28 09:06:38;;;;;;;5.40;4.60;;;;;;;24.54;15.64;100369.72;106013;1104;77324;-66
2021/04/28 09:08:49;;;;;;;7.00;5.10;;;;;;;23.96;15.94;100372.05;106040;1105;77982;-58
2021/04/28 09:10:54;;;;;;;6.40;5.10;;;;;;;24.14;16.16;100369.84;106020;1105;78822;-60
2021/04/28 09:13:05;;;;;;;6.30;5.00;;;;;;;23.91;15.64;100363.77;106011;1104;77554;-63
2021/04/28 09:15:13;;;;;;;5.60;5.00;;;;;;;23.52;15.22;100372.88;106050;1104;78493;-58
2021/04/28 09:17:19;;;;;;;5.80;5.20;;;;;;;22.45;15.88;100368.94;106025;1104;78736;-58
2021/04/28 09:19:32;;;;;;;5.00;4.60;;;;;;;22.62;16.44;100365.99;106040;1104;77015;-61
2021/04/28 09:21:59;;;;;;;7.30;5.60;;;;;;;22.21;15.97;100376.80;106030;1104;78096;-59
2021/04/28 09:24:23;;;;;;;5.50;5.00;;;;;;;21.54;16.60;100371.04;106026;1104;77749;-60
2021/04/28 09:26:34;;;;;;;8.10;6.80;;;;;;;20.77;16.75;100367.73;106032;1104;78716;-58
2021/04/28 09:28:39;;;;;;;10.10;7.00;;;;;;;19.92;17.29;100359.14;106051;1105;78022;-62
2021/04/28 09:30:47;;;;;;;7.80;5.50;;;;;;;19.06;18.07;100367.80;106024;1104;78342;-65
2021/04/28 09:33:04;;;;;;;5.40;4.90;;;;;;;18.85;18.38;100358.36;106049;1104;78568;-66
2021/04/28 09:35:16;;;;;;;5.70;5.20;;;;;;;18.74;19.05;100359.23;106022;1104;77025;-59
2021/04/28 09:37:21;;;;;;;6.80;5.00;;;;;;;19.09;19.53;100350.89;106068;1098;78834;-59
2021/04/28 09:39:26;;;;;;;6.50;5.50;;;;;;;19.06;19.70;100341.26;106043;1104;77809;-60
2021/04/28 09:41:44;;;;;;;9.60;6.60;;;;;;;18.78;19.46;100335.78;106073;1104;77717;-61